Williston Park, New York
Current Conditions -  °F | °C
As of 2:51 PM on Friday 24 Oct 2014 (Local Time) from KJFK Reporting Station
Broken Clouds Broken Clouds  
Wind Chill: 17°   Ceiling: 4100
Heat Index: 17°   Visibility: 10mi
Dew Point:   Wind: 15mph
Humidity: 52%   Direction: 340°NNW
Pressure: 29.77"   Gusts: NA
Location:  40.76°N, 73.64°W
Report Text: KJFK 241851Z 34013KT 10SM BKN041 17/07 A2977 RMK AO2 SLP080 T01670067
Loading
Personal Weather Stations






























Interactive Weather Map
Tropical Storm Tracking
New forecast layout! Learn more

10-Day Weather Forecast

Advertisements
Track Severe Weather on mobile